Time;durP1;ratioP1;P1;durP2;ratioP2;P2;SDS_P1;SDS_P2;PMS_P1;PMS_P2;Temp;Humidity;BMP_temperature;BMP_pressure;BME280_temperature;BME280_humidity;BME280_pressure;Samples;Min_cycle;Max_cycle;Signal;HPM_P1;HPM_P2
2021/06/07 00:02:10;;;;;;;;;6.67;6.67;;;;;;;;5100836;28;8845;-48
2021/06/07 00:04:35;;;;;;;;;7.25;6.25;;;;;;;;5080671;28;8788;-48
2021/06/07 00:07:01;;;;;;;;;5.67;5.67;;;;;;;;5092489;28;8786;-48
2021/06/07 00:09:26;;;;;;;;;5.33;5.00;;;;;;;;5092814;28;8747;-47
2021/06/07 00:11:53;;;;;;;;;6.33;6.00;;;;;;;;5099427;27;8733;-48
2021/06/07 00:14:21;;;;;;;;;5.00;5.00;;;;;;;;5103847;27;8802;-48
2021/06/07 00:16:46;;;;;;;;;6.75;6.75;;;;;;;;5081045;28;8839;-48
2021/06/07 00:19:14;;;;;;;;;4.00;3.33;;;;;;;;5082097;28;8782;-48
2021/06/07 00:21:39;;;;;;;;;7.25;7.00;;;;;;;;5096082;28;8787;-48
2021/06/07 00:24:05;;;;;;;;;5.00;5.00;;;;;;;;5095877;28;8794;-48
2021/06/07 00:26:30;;;;;;;;;6.67;6.67;;;;;;;;5084829;28;8779;-47
2021/06/07 00:28:56;;;;;;;;;6.67;6.67;;;;;;;;5107453;27;8806;-48
2021/06/07 00:31:21;;;;;;;;;7.00;6.00;;;;;;;;5080826;28;8888;-48
2021/06/07 00:33:47;;;;;;;;;6.00;6.00;;;;;;;;5077820;28;8776;-48
2021/06/07 00:36:13;;;;;;;;;7.00;7.00;;;;;;;;5086241;28;8774;-49
2021/06/07 00:38:39;;;;;;;;;5.50;5.25;;;;;;;;5080648;28;8767;-48
2021/06/07 00:41:07;;;;;;;;;5.50;5.00;;;;;;;;5084166;28;8782;-48
2021/06/07 00:43:32;;;;;;;;;6.25;6.25;;;;;;;;5101923;27;8846;-48
2021/06/07 00:45:58;;;;;;;;;7.00;6.67;;;;;;;;5095046;27;8772;-48
2021/06/07 00:48:23;;;;;;;;;7.67;7.00;;;;;;;;5101389;28;8811;-48
2021/06/07 00:50:54;;;;;;;;;6.00;6.00;;;;;;;;5099165;27;8760;-49
2021/06/07 00:53:19;;;;;;;;;7.75;7.50;;;;;;;;5095634;27;8798;-49
2021/06/07 00:55:48;;;;;;;;;6.00;5.67;;;;;;;;5101815;27;8794;-50
2021/06/07 00:58:14;;;;;;;;;5.50;5.50;;;;;;;;5099791;27;11518;-49
2021/06/07 01:00:39;;;;;;;;;8.50;7.00;;;;;;;;5102516;27;8980;-50
2021/06/07 01:03:06;;;;;;;;;7.00;6.00;;;;;;;;5096031;28;8791;-50
2021/06/07 01:05:32;;;;;;;;;6.00;6.00;;;;;;;;5097031;28;8773;-50
2021/06/07 01:07:57;;;;;;;;;4.00;4.00;;;;;;;;5104964;27;8766;-49
2021/06/07 01:10:23;;;;;;;;;7.00;6.67;;;;;;;;5096511;27;8765;-50
2021/06/07 01:12:48;;;;;;;;;7.00;7.00;;;;;;;;5102409;27;8750;-49
2021/06/07 01:15:14;;;;;;;;;6.33;5.67;;;;;;;;5096080;27;8792;-49
2021/06/07 01:17:40;;;;;;;;;6.25;6.25;;;;;;;;5096093;27;8762;-49
2021/06/07 01:20:06;;;;;;;;;7.00;7.00;;;;;;;;5099012;27;8867;-50
2021/06/07 01:22:31;;;;;;;;;6.25;6.25;;;;;;;;5102480;27;8832;-49
2021/06/07 01:24:57;;;;;;;;;8.00;8.00;;;;;;;;5093341;28;8809;-48
2021/06/07 01:27:22;;;;;;;;;6.33;6.33;;;;;;;;5098471;27;8779;-48
2021/06/07 01:29:47;;;;;;;;;6.00;6.00;;;;;;;;5100805;27;8749;-48
2021/06/07 01:32:13;;;;;;;;;6.00;5.67;;;;;;;;5092490;28;8776;-48
2021/06/07 01:34:39;;;;;;;;;7.67;7.67;;;;;;;;5096440;27;8808;-48
2021/06/07 01:37:04;;;;;;;;;7.00;7.00;;;;;;;;5090835;27;8762;-48
2021/06/07 01:39:29;;;;;;;;;6.67;6.67;;;;;;;;5097968;27;8805;-48
2021/06/07 01:41:55;;;;;;;;;6.67;6.67;;;;;;;;5094521;27;8822;-48
2021/06/07 01:44:21;;;;;;;;;6.33;6.00;;;;;;;;5100252;28;8771;-48
2021/06/07 01:46:46;;;;;;;;;6.00;6.00;;;;;;;;5080876;28;8790;-48
2021/06/07 01:49:12;;;;;;;;;6.67;6.67;;;;;;;;5080719;28;8884;-48
2021/06/07 01:51:37;;;;;;;;;6.00;6.00;;;;;;;;5083810;28;8781;-48
2021/06/07 01:54:02;;;;;;;;;5.33;5.33;;;;;;;;5078377;28;8753;-48
2021/06/07 01:56:28;;;;;;;;;5.67;5.67;;;;;;;;5079340;28;9609;-47
2021/06/07 01:58:53;;;;;;;;;8.00;8.00;;;;;;;;5087933;28;8774;-48
2021/06/07 02:01:19;;;;;;;;;6.00;6.00;;;;;;;;5081283;28;8967;-48
2021/06/07 02:03:45;;;;;;;;;4.50;4.25;;;;;;;;5079876;28;8783;-48
2021/06/07 02:06:12;;;;;;;;;6.00;6.00;;;;;;;;5083677;28;8754;-47
2021/06/07 02:08:37;;;;;;;;;5.00;5.00;;;;;;;;5081320;28;9358;-48
2021/06/07 02:11:22;;;;;;;;;8.67;8.67;;;;;;;;5088796;28;8802;-48
2021/06/07 02:13:49;;;;;;;;;6.50;6.00;;;;;;;;5074867;28;8860;-48
2021/06/07 02:16:16;;;;;;;;;8.75;7.75;;;;;;;;5073483;28;8787;-47
2021/06/07 02:18:42;;;;;;;;;7.00;7.00;;;;;;;;5092534;27;8763;-47
2021/06/07 02:21:08;;;;;;;;;7.00;7.00;;;;;;;;5103994;27;8765;-48
2021/06/07 02:23:33;;;;;;;;;6.50;6.50;;;;;;;;5101886;27;8837;-48
2021/06/07 02:25:58;;;;;;;;;6.33;6.33;;;;;;;;5086761;28;8822;-48
2021/06/07 02:28:24;;;;;;;;;8.00;8.00;;;;;;;;5096044;28;8782;-48
2021/06/07 02:30:49;;;;;;;;;7.33;7.33;;;;;;;;5086001;28;8767;-48
2021/06/07 02:33:16;;;;;;;;;7.33;7.00;;;;;;;;5086207;28;8809;-48
2021/06/07 02:35:41;;;;;;;;;7.50;7.50;;;;;;;;5081448;28;8850;-48
2021/06/07 02:38:06;;;;;;;;;6.00;6.00;;;;;;;;5084730;28;8770;-48
2021/06/07 02:40:32;;;;;;;;;7.67;6.67;;;;;;;;5092366;27;8780;-49
2021/06/07 02:42:58;;;;;;;;;8.00;8.00;;;;;;;;5089615;28;8814;-48
2021/06/07 02:45:23;;;;;;;;;8.33;8.00;;;;;;;;5083544;28;8795;-48
2021/06/07 02:47:50;;;;;;;;;8.67;8.33;;;;;;;;5082358;28;8835;-49
2021/06/07 02:50:17;;;;;;;;;7.75;7.75;;;;;;;;5079327;28;9636;-48
2021/06/07 02:52:48;;;;;;;;;7.25;6.75;;;;;;;;5083581;28;8785;-48
2021/06/07 02:55:15;;;;;;;;;7.00;7.00;;;;;;;;5081670;28;8758;-48
2021/06/07 02:57:41;;;;;;;;;8.00;7.00;;;;;;;;5081631;28;8887;-48
2021/06/07 03:00:06;;;;;;;;;7.67;7.67;;;;;;;;5083754;28;8905;-48
2021/06/07 03:02:32;;;;;;;;;8.00;8.00;;;;;;;;5100997;27;8816;-48
2021/06/07 03:04:57;;;;;;;;;9.00;8.33;;;;;;;;5104942;28;8884;-48
2021/06/07 03:07:22;;;;;;;;;8.67;8.00;;;;;;;;5085996;28;8785;-49
2021/06/07 03:09:47;;;;;;;;;7.33;7.00;;;;;;;;5091370;28;8779;-48
2021/06/07 03:12:13;;;;;;;;;7.00;7.00;;;;;;;;5098681;28;9442;-48
2021/06/07 03:14:41;;;;;;;;;6.00;6.00;;;;;;;;5080102;28;8891;-48
2021/06/07 03:17:07;;;;;;;;;8.00;8.00;;;;;;;;5080108;28;8841;-48
2021/06/07 03:19:32;;;;;;;;;7.67;7.67;;;;;;;;5081154;28;8796;-48
2021/06/07 03:21:57;;;;;;;;;8.00;8.00;;;;;;;;5074893;28;8788;-48
2021/06/07 03:24:22;;;;;;;;;7.00;7.00;;;;;;;;5084440;28;9525;-48
2021/06/07 03:26:47;;;;;;;;;8.00;8.00;;;;;;;;5082089;28;8762;-48
2021/06/07 03:29:13;;;;;;;;;7.67;7.67;;;;;;;;5095720;28;8770;-48
2021/06/07 03:31:38;;;;;;;;;7.33;7.33;;;;;;;;5082440;28;8809;-48
2021/06/07 03:34:03;;;;;;;;;9.33;8.67;;;;;;;;5083568;28;8918;-48
2021/06/07 03:36:30;;;;;;;;;4.67;4.67;;;;;;;;5083735;28;9539;-48
2021/06/07 03:38:55;;;;;;;;;7.50;7.50;;;;;;;;5079994;28;8740;-48
2021/06/07 03:41:20;;;;;;;;;6.33;6.00;;;;;;;;5081169;28;8797;-48
2021/06/07 03:43:45;;;;;;;;;8.00;8.00;;;;;;;;5083295;28;8849;-49
2021/06/07 03:46:11;;;;;;;;;9.33;9.33;;;;;;;;5081721;28;8778;-48
2021/06/07 03:48:36;;;;;;;;;7.67;7.67;;;;;;;;5085494;28;8850;-48
2021/06/07 03:51:02;;;;;;;;;8.67;7.67;;;;;;;;5080994;28;8758;-49
2021/06/07 03:53:27;;;;;;;;;6.33;6.33;;;;;;;;5083497;28;8857;-49
2021/06/07 03:55:53;;;;;;;;;7.00;6.33;;;;;;;;5086275;28;8926;-49
2021/06/07 03:58:18;;;;;;;;;8.00;7.67;;;;;;;;5084214;28;8903;-48
2021/06/07 04:00:43;;;;;;;;;8.00;8.00;;;;;;;;5090995;27;8931;-49
2021/06/07 04:03:09;;;;;;;;;9.33;9.33;;;;;;;;5093546;28;8902;-49
2021/06/07 04:05:35;;;;;;;;;8.00;8.00;;;;;;;;5097757;27;8775;-49
2021/06/07 04:08:01;;;;;;;;;9.75;9.50;;;;;;;;5080018;28;8805;-49
2021/06/07 04:10:27;;;;;;;;;9.00;9.00;;;;;;;;5086916;28;9154;-49
2021/06/07 04:12:53;;;;;;;;;8.00;8.00;;;;;;;;5084968;28;8766;-49
2021/06/07 04:15:20;;;;;;;;;8.00;8.00;;;;;;;;5082733;28;11401;-48
2021/06/07 04:17:45;;;;;;;;;10.00;9.50;;;;;;;;5078952;28;8793;-49
2021/06/07 04:20:12;;;;;;;;;9.33;9.33;;;;;;;;5088340;28;8804;-49
2021/06/07 04:22:37;;;;;;;;;7.25;7.25;;;;;;;;5083280;28;8959;-49
2021/06/07 04:25:03;;;;;;;;;10.00;9.00;;;;;;;;5088419;28;8940;-48
2021/06/07 04:27:29;;;;;;;;;8.00;8.00;;;;;;;;5091521;27;8766;-49
2021/06/07 04:29:54;;;;;;;;;9.33;9.33;;;;;;;;5091678;28;8740;-49
2021/06/07 04:32:19;;;;;;;;;7.67;7.67;;;;;;;;5105564;27;8804;-49
2021/06/07 04:34:44;;;;;;;;;10.00;10.00;;;;;;;;5103782;27;8777;-49
2021/06/07 04:37:10;;;;;;;;;8.67;8.67;;;;;;;;5082212;28;8780;-49
2021/06/07 04:39:35;;;;;;;;;7.33;7.00;;;;;;;;5085183;28;8790;-48
2021/06/07 04:42:01;;;;;;;;;9.67;9.67;;;;;;;;5084448;28;9911;-49
2021/06/07 04:44:26;;;;;;;;;8.33;8.00;;;;;;;;5086301;28;9566;-49
2021/06/07 04:46:51;;;;;;;;;8.33;8.33;;;;;;;;5100877;27;8789;-49
2021/06/07 04:49:16;;;;;;;;;8.33;8.33;;;;;;;;5095778;28;8758;-49
2021/06/07 04:51:42;;;;;;;;;8.00;8.00;;;;;;;;5092603;28;8778;-49
2021/06/07 04:54:07;;;;;;;;;8.33;8.33;;;;;;;;5089589;27;8878;-48
2021/06/07 04:56:33;;;;;;;;;11.67;11.00;;;;;;;;5100854;28;8798;-48
2021/06/07 04:58:58;;;;;;;;;9.00;9.00;;;;;;;;5108921;27;8928;-49
2021/06/07 05:01:23;;;;;;;;;10.67;10.67;;;;;;;;5101984;28;8769;-49
2021/06/07 05:03:48;;;;;;;;;11.00;10.00;;;;;;;;5099792;28;8931;-49
2021/06/07 05:06:13;;;;;;;;;8.67;8.67;;;;;;;;5098857;27;8766;-48
2021/06/07 05:08:39;;;;;;;;;6.67;6.67;;;;;;;;5082747;28;8777;-49
2021/06/07 05:11:05;;;;;;;;;7.67;7.67;;;;;;;;5088615;28;8790;-49
2021/06/07 05:13:30;;;;;;;;;8.33;8.33;;;;;;;;5097083;28;8806;-50
2021/06/07 05:15:55;;;;;;;;;8.00;8.00;;;;;;;;5084407;28;8923;-50
2021/06/07 05:18:21;;;;;;;;;8.67;8.00;;;;;;;;5080695;28;8764;-50
2021/06/07 05:20:46;;;;;;;;;9.00;9.00;;;;;;;;5080693;28;8810;-50
2021/06/07 05:23:12;;;;;;;;;8.67;8.67;;;;;;;;5080426;28;8858;-50
2021/06/07 05:25:37;;;;;;;;;9.00;9.00;;;;;;;;5077726;28;8812;-50
2021/06/07 05:28:04;;;;;;;;;6.33;6.00;;;;;;;;5091201;28;8787;-50
2021/06/07 05:30:29;;;;;;;;;8.00;8.00;;;;;;;;5089115;27;9914;-49
2021/06/07 05:32:55;;;;;;;;;9.00;9.00;;;;;;;;5074998;28;8796;-49
2021/06/07 05:35:23;;;;;;;;;7.67;7.67;;;;;;;;5079810;28;8845;-49
2021/06/07 05:37:48;;;;;;;;;7.75;7.75;;;;;;;;5099040;27;9002;-50
2021/06/07 05:40:14;;;;;;;;;10.00;10.00;;;;;;;;5095740;27;8758;-49
2021/06/07 05:42:40;;;;;;;;;8.00;8.00;;;;;;;;5096874;28;8980;-49
2021/06/07 05:45:06;;;;;;;;;6.67;6.67;;;;;;;;5095605;28;8764;-49
2021/06/07 05:47:31;;;;;;;;;9.25;9.25;;;;;;;;5094984;27;9162;-49
2021/06/07 05:49:56;;;;;;;;;8.67;8.67;;;;;;;;5083671;28;8790;-49
2021/06/07 05:52:22;;;;;;;;;7.33;7.33;;;;;;;;5066463;28;8797;-49
2021/06/07 05:54:47;;;;;;;;;9.33;9.33;;;;;;;;5069991;28;8767;-49
2021/06/07 05:57:12;;;;;;;;;8.00;8.00;;;;;;;;5070578;28;8829;-49
2021/06/07 05:59:38;;;;;;;;;6.00;5.67;;;;;;;;5078325;28;8789;-49
2021/06/07 06:02:06;;;;;;;;;10.00;8.00;;;;;;;;5082521;28;10223;-49
2021/06/07 06:04:32;;;;;;;;;10.50;10.50;;;;;;;;5076679;28;8779;-49
2021/06/07 06:06:58;;;;;;;;;8.75;8.25;;;;;;;;5089608;28;8770;-49
2021/06/07 06:09:23;;;;;;;;;6.33;6.33;;;;;;;;5088280;28;8934;-49
2021/06/07 06:11:49;;;;;;;;;8.00;7.33;;;;;;;;5079247;28;8785;-49
2021/06/07 06:14:14;;;;;;;;;8.00;8.00;;;;;;;;5079027;28;8912;-49
2021/06/07 06:16:39;;;;;;;;;8.00;7.33;;;;;;;;5077924;28;8808;-49
2021/06/07 06:19:04;;;;;;;;;7.67;6.67;;;;;;;;5073196;28;8779;-48
2021/06/07 06:21:30;;;;;;;;;9.67;9.67;;;;;;;;5080362;28;8805;-48
2021/06/07 06:23:55;;;;;;;;;10.67;9.00;;;;;;;;5084434;27;8924;-48
2021/06/07 06:26:21;;;;;;;;;7.33;7.00;;;;;;;;5104925;28;8868;-48
2021/06/07 06:28:46;;;;;;;;;8.00;8.00;;;;;;;;5102213;27;8792;-48
2021/06/07 06:31:12;;;;;;;;;8.67;8.67;;;;;;;;5104659;28;11419;-48
2021/06/07 06:33:37;;;;;;;;;7.67;7.67;;;;;;;;5093441;28;8870;-48
2021/06/07 06:36:02;;;;;;;;;8.00;8.00;;;;;;;;5089005;28;8752;-48
2021/06/07 06:38:27;;;;;;;;;8.00;7.00;;;;;;;;5104526;27;8759;-48
2021/06/07 06:40:53;;;;;;;;;7.00;7.00;;;;;;;;5104466;28;8784;-48
2021/06/07 06:43:18;;;;;;;;;8.00;7.67;;;;;;;;5085074;28;9656;-45
2021/06/07 06:45:44;;;;;;;;;7.33;7.33;;;;;;;;5078542;28;8782;-47
2021/06/07 06:48:09;;;;;;;;;9.33;9.00;;;;;;;;5081633;28;8770;-46
2021/06/07 06:50:36;;;;;;;;;8.00;8.00;;;;;;;;5083901;28;8774;-47
2021/06/07 06:53:03;;;;;;;;;8.00;8.00;;;;;;;;5102740;27;8772;-47
2021/06/07 06:55:28;;;;;;;;;7.50;7.50;;;;;;;;5099300;28;8745;-47
2021/06/07 06:57:54;;;;;;;;;6.67;6.67;;;;;;;;5100251;28;8765;-47
2021/06/07 07:00:20;;;;;;;;;6.33;6.00;;;;;;;;5088701;27;8787;-47
2021/06/07 07:02:45;;;;;;;;;7.00;7.00;;;;;;;;5100170;28;8923;-47
2021/06/07 07:05:10;;;;;;;;;8.67;8.67;;;;;;;;5098970;28;8793;-47
2021/06/07 07:07:35;;;;;;;;;6.67;6.67;;;;;;;;5101934;28;8781;-47
2021/06/07 07:10:01;;;;;;;;;7.00;7.00;;;;;;;;5097146;27;8855;-46
2021/06/07 07:12:26;;;;;;;;;7.67;7.67;;;;;;;;5098720;28;8822;-46
2021/06/07 07:14:53;;;;;;;;;7.67;7.67;;;;;;;;5096403;27;8736;-47
2021/06/07 07:17:18;;;;;;;;;7.50;7.50;;;;;;;;5098915;28;11453;-46
2021/06/07 07:19:45;;;;;;;;;7.00;7.00;;;;;;;;5100393;27;9587;-47
2021/06/07 07:22:11;;;;;;;;;9.00;8.25;;;;;;;;5107465;28;8814;-47
2021/06/07 07:24:36;;;;;;;;;7.00;7.00;;;;;;;;5105466;27;8812;-47
2021/06/07 07:27:02;;;;;;;;;6.00;6.00;;;;;;;;5105804;28;8748;-47
2021/06/07 07:29:31;;;;;;;;;9.33;8.67;;;;;;;;5106649;27;8797;-47
2021/06/07 07:31:56;;;;;;;;;5.25;5.25;;;;;;;;5108098;28;9792;-47
2021/06/07 07:34:21;;;;;;;;;6.00;6.00;;;;;;;;5105244;27;8802;-47
2021/06/07 07:36:47;;;;;;;;;8.67;7.67;;;;;;;;5107185;28;8808;-48
2021/06/07 07:39:12;;;;;;;;;7.00;7.00;;;;;;;;5099778;28;8841;-48
2021/06/07 07:41:37;;;;;;;;;8.33;8.00;;;;;;;;5087172;28;8811;-47
2021/06/07 07:44:02;;;;;;;;;7.33;7.33;;;;;;;;5104393;27;8808;-47
2021/06/07 07:46:28;;;;;;;;;6.33;6.33;;;;;;;;5105375;28;8814;-47
2021/06/07 07:48:53;;;;;;;;;8.33;8.33;;;;;;;;5106303;27;8792;-47
2021/06/07 07:51:18;;;;;;;;;7.67;7.67;;;;;;;;5106749;28;8812;-47
2021/06/07 07:53:43;;;;;;;;;7.00;7.00;;;;;;;;5106660;27;8996;-48
2021/06/07 07:56:09;;;;;;;;;5.67;5.00;;;;;;;;5109524;27;9551;-47
2021/06/07 07:58:34;;;;;;;;;8.33;8.33;;;;;;;;5087577;28;8783;-47
2021/06/07 08:00:59;;;;;;;;;9.67;9.00;;;;;;;;5099653;28;11432;-47
2021/06/07 08:03:25;;;;;;;;;5.67;5.67;;;;;;;;5096391;27;9083;-47
2021/06/07 08:05:50;;;;;;;;;8.00;7.33;;;;;;;;5086063;28;8801;-47
2021/06/07 08:08:15;;;;;;;;;5.67;5.67;;;;;;;;5086747;28;8782;-47
2021/06/07 08:10:40;;;;;;;;;6.33;5.67;;;;;;;;5084314;28;9488;-47
2021/06/07 08:13:06;;;;;;;;;6.00;6.00;;;;;;;;5082670;28;8793;-47
2021/06/07 08:15:34;;;;;;;;;5.00;5.00;;;;;;;;5085271;28;8771;-47
2021/06/07 08:17:59;;;;;;;;;7.50;7.50;;;;;;;;5085477;28;8742;-47
2021/06/07 08:20:24;;;;;;;;;6.33;6.33;;;;;;;;5088012;28;8820;-47
2021/06/07 08:22:50;;;;;;;;;5.67;5.67;;;;;;;;5103079;28;8813;-48
2021/06/07 08:25:41;;;;;;;;;6.00;6.00;;;;;;;;5090147;28;8792;-47
2021/06/07 08:28:06;;;;;;;;;7.50;7.50;;;;;;;;5085204;28;8770;-47
2021/06/07 08:30:33;;;;;;;;;6.33;6.33;;;;;;;;5084025;28;8791;-47
2021/06/07 08:32:58;;;;;;;;;8.00;6.75;;;;;;;;5087553;28;8750;-47
2021/06/07 08:35:23;;;;;;;;;6.00;6.00;;;;;;;;5085282;28;8799;-47
2021/06/07 08:37:48;;;;;;;;;7.00;7.00;;;;;;;;5087567;28;9519;-47
2021/06/07 08:40:15;;;;;;;;;7.67;7.67;;;;;;;;5083021;28;8772;-47
2021/06/07 08:42:43;;;;;;;;;7.50;7.50;;;;;;;;5084230;28;8960;-47
2021/06/07 08:45:12;;;;;;;;;5.75;5.75;;;;;;;;5078480;28;8760;-47
2021/06/07 08:47:41;;;;;;;;;7.25;6.75;;;;;;;;5089388;28;8788;-47
2021/06/07 08:50:07;;;;;;;;;5.75;5.75;;;;;;;;5103057;27;8767;-47
2021/06/07 08:52:32;;;;;;;;;6.67;6.33;;;;;;;;5087889;28;9334;-47
2021/06/07 08:54:57;;;;;;;;;5.67;5.67;;;;;;;;5082057;28;9439;-47
2021/06/07 08:57:24;;;;;;;;;7.00;6.67;;;;;;;;5094438;28;8812;-47
2021/06/07 08:59:50;;;;;;;;;5.00;5.00;;;;;;;;5104644;27;8706;-47
2021/06/07 09:02:15;;;;;;;;;6.67;6.67;;;;;;;;5107028;27;8840;-47
2021/06/07 09:04:47;;;;;;;;;5.00;5.00;;;;;;;;5101460;28;8770;-47
2021/06/07 09:07:12;;;;;;;;;5.25;5.25;;;;;;;;5105379;27;8820;-47
2021/06/07 09:09:38;;;;;;;;;6.00;6.00;;;;;;;;5098825;27;8746;-47
2021/06/07 09:12:04;;;;;;;;;4.33;4.33;;;;;;;;5101555;28;8768;-47
2021/06/07 09:14:37;;;;;;;;;5.75;5.75;;;;;;;;5100070;27;8781;-48
2021/06/07 09:17:14;;;;;;;;;7.00;7.00;;;;;;;;5102237;28;8785;-47
2021/06/07 09:19:39;;;;;;;;;5.00;5.00;;;;;;;;5099223;27;8777;-48
2021/06/07 09:22:22;;;;;;;;;6.67;6.67;;;;;;;;5099846;27;8861;-47
2021/06/07 09:25:17;;;;;;;;;7.50;6.50;;;;;;;;5102420;27;10087;-47
2021/06/07 09:28:00;;;;;;;;;6.00;6.00;;;;;;;;5081899;28;8869;-47
2021/06/07 09:30:46;;;;;;;;;6.00;6.00;;;;;;;;5099451;27;8946;-47
2021/06/07 09:33:20;;;;;;;;;6.50;6.50;;;;;;;;5091608;27;8750;-47
2021/06/07 09:35:47;;;;;;;;;6.75;6.75;;;;;;;;5077436;28;8811;-46
2021/06/07 09:38:12;;;;;;;;;5.00;4.75;;;;;;;;5072614;27;8815;-47
2021/06/07 09:40:38;;;;;;;;;7.00;7.00;;;;;;;;5085314;28;8772;-47
2021/06/07 09:43:04;;;;;;;;;5.00;5.00;;;;;;;;5095107;27;8840;-47
2021/06/07 09:45:45;;;;;;;;;5.00;4.75;;;;;;;;5093197;28;8791;-47
2021/06/07 09:48:12;;;;;;;;;6.50;6.00;;;;;;;;5094629;28;8792;-47
2021/06/07 09:50:37;;;;;;;;;4.75;4.75;;;;;;;;5098105;27;8864;-47
2021/06/07 09:53:03;;;;;;;;;4.67;4.67;;;;;;;;5100559;27;8786;-47
2021/06/07 09:55:28;;;;;;;;;6.33;5.67;;;;;;;;5100776;28;8902;-47
2021/06/07 09:57:55;;;;;;;;;7.00;6.00;;;;;;;;5086307;28;9553;-47
2021/06/07 10:00:48;;;;;;;;;4.50;4.50;;;;;;;;5077585;28;8821;-47
2021/06/07 10:03:23;;;;;;;;;5.25;5.25;;;;;;;;5081330;28;8770;-48
2021/06/07 10:05:50;;;;;;;;;5.00;5.00;;;;;;;;5080692;28;8772;-48
2021/06/07 10:08:16;;;;;;;;;5.25;5.25;;;;;;;;5103307;27;8858;-47
2021/06/07 10:10:41;;;;;;;;;5.00;5.00;;;;;;;;5092790;28;8761;-47
2021/06/07 10:13:10;;;;;;;;;5.33;5.33;;;;;;;;5084383;28;8904;-48
2021/06/07 10:15:39;;;;;;;;;5.00;5.00;;;;;;;;5069927;28;8754;-47
2021/06/07 10:18:07;;;;;;;;;6.25;5.50;;;;;;;;5079588;28;8904;-47
2021/06/07 10:22:58;;;;;;;;;5.33;5.33;;;;;;;;5078667;28;8820;-47
2021/06/07 10:25:23;;;;;;;;;5.33;5.33;;;;;;;;5079373;28;11441;-47
2021/06/07 10:27:48;;;;;;;;;5.33;5.33;;;;;;;;5090325;28;9613;-48
2021/06/07 10:30:24;;;;;;;;;5.00;5.00;;;;;;;;5093215;28;8904;-48
2021/06/07 10:32:49;;;;;;;;;4.75;4.75;;;;;;;;5073477;28;8726;-47
2021/06/07 10:35:33;;;;;;;;;4.67;4.00;;;;;;;;5081417;28;8788;-47
2021/06/07 10:38:07;;;;;;;;;5.00;5.00;;;;;;;;5078307;28;8766;-47
2021/06/07 10:40:32;;;;;;;;;3.75;3.75;;;;;;;;5092560;28;8768;-47
2021/06/07 10:42:59;;;;;;;;;4.67;4.67;;;;;;;;5086284;28;8805;-47
2021/06/07 10:45:26;;;;;;;;;4.50;4.50;;;;;;;;5079289;28;8766;-47
2021/06/07 10:47:52;;;;;;;;;5.00;5.00;;;;;;;;5074108;28;8760;-47
2021/06/07 10:50:28;;;;;;;;;6.00;6.00;;;;;;;;5079762;28;9008;-47
2021/06/07 10:52:56;;;;;;;;;5.00;5.00;;;;;;;;5095248;28;8819;-47
2021/06/07 10:55:27;;;;;;;;;4.00;4.00;;;;;;;;5082393;28;8923;-47
2021/06/07 10:58:03;;;;;;;;;5.00;4.75;;;;;;;;5085903;28;8930;-47
2021/06/07 11:00:31;;;;;;;;;5.00;5.00;;;;;;;;5098834;28;8812;-47
2021/06/07 11:02:58;;;;;;;;;4.00;4.00;;;;;;;;5087359;28;8784;-47
2021/06/07 11:05:23;;;;;;;;;3.75;3.75;;;;;;;;5082090;28;8782;-47
2021/06/07 11:08:04;;;;;;;;;5.00;5.00;;;;;;;;5076960;28;8783;-46
2021/06/07 11:10:30;;;;;;;;;4.00;4.00;;;;;;;;5078610;28;8769;-46
2021/06/07 11:12:58;;;;;;;;;4.25;4.25;;;;;;;;5074042;28;8765;-46
2021/06/07 11:15:45;;;;;;;;;5.00;5.00;;;;;;;;5062148;28;8784;-46
2021/06/07 11:18:18;;;;;;;;;5.00;5.00;;;;;;;;5066919;28;9267;-46
2021/06/07 11:20:43;;;;;;;;;6.00;6.00;;;;;;;;5075619;28;8804;-47
2021/06/07 11:23:13;;;;;;;;;4.33;4.33;;;;;;;;5078439;28;8817;-46
2021/06/07 11:25:46;;;;;;;;;3.00;3.00;;;;;;;;5078569;28;8773;-46
2021/06/07 11:28:31;;;;;;;;;5.00;5.00;;;;;;;;5078852;28;8850;-46
2021/06/07 11:30:57;;;;;;;;;3.75;3.75;;;;;;;;5076834;28;8782;-47
2021/06/07 11:33:22;;;;;;;;;4.50;4.50;;;;;;;;5079713;28;8794;-46
2021/06/07 11:35:48;;;;;;;;;4.67;4.67;;;;;;;;5074194;28;8800;-47
2021/06/07 11:38:32;;;;;;;;;4.00;4.00;;;;;;;;5077746;28;8785;-46
2021/06/07 11:40:58;;;;;;;;;5.25;5.00;;;;;;;;5090188;28;9607;-46
2021/06/07 11:43:50;;;;;;;;;5.00;5.00;;;;;;;;5098032;28;8805;-47
2021/06/07 11:46:27;;;;;;;;;4.75;4.75;;;;;;;;5089187;27;8747;-46
2021/06/07 11:49:15;;;;;;;;;4.00;4.00;;;;;;;;5095565;28;9531;-46
2021/06/07 11:51:41;;;;;;;;;3.00;3.00;;;;;;;;5086291;27;8770;-46
2021/06/07 11:54:29;;;;;;;;;4.50;4.50;;;;;;;;5096653;28;8752;-46
2021/06/07 11:56:58;;;;;;;;;3.75;3.75;;;;;;;;5090358;27;8764;-47
2021/06/07 11:59:24;;;;;;;;;5.00;5.00;;;;;;;;5094582;28;8768;-46
2021/06/07 12:01:50;;;;;;;;;4.00;4.00;;;;;;;;5095195;27;9660;-46
2021/06/07 12:04:27;;;;;;;;;5.00;5.00;;;;;;;;5095023;28;8770;-46
2021/06/07 12:07:00;;;;;;;;;4.25;4.25;;;;;;;;5096432;27;8900;-47
2021/06/07 12:09:26;;;;;;;;;4.75;4.75;;;;;;;;5098309;28;9492;-46
2021/06/07 12:11:52;;;;;;;;;4.67;4.67;;;;;;;;5099507;28;8801;-47
2021/06/07 12:14:37;;;;;;;;;4.00;4.00;;;;;;;;5102837;28;9592;-46
2021/06/07 12:17:03;;;;;;;;;3.75;3.75;;;;;;;;5100885;27;8781;-47
2021/06/07 12:19:38;;;;;;;;;3.75;3.75;;;;;;;;5094427;28;8784;-46
2021/06/07 12:22:03;;;;;;;;;4.50;4.25;;;;;;;;5097509;27;9523;-46
2021/06/07 12:24:30;;;;;;;;;3.67;3.67;;;;;;;;5093801;28;8853;-47
2021/06/07 12:29:41;;;;;;;;;4.00;4.00;;;;;;;;5078011;28;8758;-47
2021/06/07 12:32:06;;;;;;;;;3.25;3.25;;;;;;;;5076504;28;8805;-47
2021/06/07 12:34:32;;;;;;;;;3.00;3.00;;;;;;;;5092873;27;8792;-47
2021/06/07 12:36:57;;;;;;;;;3.67;3.67;;;;;;;;5094858;28;8927;-47
2021/06/07 12:39:23;;;;;;;;;3.33;3.33;;;;;;;;5095026;27;8802;-46
2021/06/07 12:41:48;;;;;;;;;3.33;3.33;;;;;;;;5094479;27;8769;-46
2021/06/07 12:44:13;;;;;;;;;3.67;3.67;;;;;;;;5080014;28;8800;-46
2021/06/07 12:46:46;;;;;;;;;3.33;3.00;;;;;;;;5093352;27;8772;-46
2021/06/07 12:49:21;;;;;;;;;4.00;4.00;;;;;;;;5080620;27;8902;-46
2021/06/07 12:51:55;;;;;;;;;3.25;2.75;;;;;;;;5079257;28;8782;-46
2021/06/07 12:54:21;;;;;;;;;3.25;3.25;;;;;;;;5080213;28;8774;-47
2021/06/07 12:56:49;;;;;;;;;4.67;4.67;;;;;;;;5080934;28;8804;-46
2021/06/07 12:59:14;;;;;;;;;4.75;4.00;;;;;;;;5083404;28;8774;-46
2021/06/07 13:01:41;;;;;;;;;4.00;4.00;;;;;;;;5079399;27;8835;-46
2021/06/07 13:04:06;;;;;;;;;4.25;4.25;;;;;;;;5080314;28;8799;-45
2021/06/07 13:06:42;;;;;;;;;3.33;3.33;;;;;;;;5078883;28;8765;-46
2021/06/07 13:09:08;;;;;;;;;3.00;3.00;;;;;;;;5077333;28;8838;-46
2021/06/07 13:11:33;;;;;;;;;4.25;4.25;;;;;;;;5081687;28;8784;-47
2021/06/07 13:13:59;;;;;;;;;3.75;3.75;;;;;;;;5085267;28;8786;-47
2021/06/07 13:16:31;;;;;;;;;4.25;4.25;;;;;;;;5085601;28;8940;-47
2021/06/07 13:19:05;;;;;;;;;4.50;4.25;;;;;;;;5082648;28;8770;-47
2021/06/07 13:21:30;;;;;;;;;3.00;2.75;;;;;;;;5085337;28;8781;-47
2021/06/07 13:23:56;;;;;;;;;3.00;3.00;;;;;;;;5080689;28;8754;-47
2021/06/07 13:26:24;;;;;;;;;4.00;4.00;;;;;;;;5086114;28;8813;-47
2021/06/07 13:29:10;;;;;;;;;4.50;4.00;;;;;;;;5080293;28;8827;-47
2021/06/07 13:31:47;;;;;;;;;4.75;4.75;;;;;;;;5083782;28;8782;-47
2021/06/07 13:34:13;;;;;;;;;3.50;3.50;;;;;;;;5081002;28;8738;-47
2021/06/07 13:36:38;;;;;;;;;3.67;2.67;;;;;;;;5080196;28;8778;-47
2021/06/07 13:39:04;;;;;;;;;4.33;3.67;;;;;;;;5086098;28;10316;-47
2021/06/07 13:41:29;;;;;;;;;2.67;2.67;;;;;;;;5083192;28;8816;-47
2021/06/07 13:43:54;;;;;;;;;4.67;4.33;;;;;;;;5090469;28;8846;-47
2021/06/07 13:46:27;;;;;;;;;4.00;4.00;;;;;;;;5075280;28;8894;-47
2021/06/07 13:48:52;;;;;;;;;4.25;3.25;;;;;;;;5086305;28;8800;-47
2021/06/07 13:51:31;;;;;;;;;4.00;3.33;;;;;;;;5090723;27;8782;-47
2021/06/07 13:54:07;;;;;;;;;3.50;3.50;;;;;;;;5096366;28;8729;-47
2021/06/07 13:56:32;;;;;;;;;3.50;3.50;;;;;;;;5085531;28;8778;-47
2021/06/07 13:58:58;;;;;;;;;4.00;4.00;;;;;;;;5106174;27;8776;-47
2021/06/07 14:01:24;;;;;;;;;4.00;4.00;;;;;;;;5104285;27;8765;-47
2021/06/07 14:03:54;;;;;;;;;4.00;4.00;;;;;;;;5095722;27;8785;-47
2021/06/07 14:06:20;;;;;;;;;2.50;2.50;;;;;;;;5086783;28;8885;-47
2021/06/07 14:08:52;;;;;;;;;3.67;3.67;;;;;;;;5107590;27;8805;-46
2021/06/07 14:11:23;;;;;;;;;4.25;3.75;;;;;;;;5080773;28;8768;-47
2021/06/07 14:13:49;;;;;;;;;3.00;3.00;;;;;;;;5099987;27;9672;-46
2021/06/07 14:16:15;;;;;;;;;3.00;3.00;;;;;;;;5104801;28;8938;-47
2021/06/07 14:18:40;;;;;;;;;4.00;3.67;;;;;;;;5103644;27;8750;-47
2021/06/07 14:21:09;;;;;;;;;3.00;3.00;;;;;;;;5104257;28;8815;-47
2021/06/07 14:26:21;;;;;;;;;3.00;2.75;;;;;;;;5086034;28;8774;-47
2021/06/07 14:28:48;;;;;;;;;3.00;3.00;;;;;;;;5079995;28;8789;-47
2021/06/07 14:31:13;;;;;;;;;3.50;3.50;;;;;;;;5089423;28;8780;-47
2021/06/07 14:33:39;;;;;;;;;4.00;4.00;;;;;;;;5087999;28;8771;-47
2021/06/07 14:36:06;;;;;;;;;4.00;4.00;;;;;;;;5075119;28;8766;-47
2021/06/07 14:38:32;;;;;;;;;4.50;4.50;;;;;;;;5081607;28;8789;-47
2021/06/07 14:41:03;;;;;;;;;4.00;3.67;;;;;;;;5085149;28;8786;-47
2021/06/07 14:43:29;;;;;;;;;3.75;3.75;;;;;;;;5080724;28;11459;-47
2021/06/07 14:45:56;;;;;;;;;3.00;3.00;;;;;;;;5081549;28;8785;-47
2021/06/07 14:48:21;;;;;;;;;2.75;2.75;;;;;;;;5086333;28;8771;-47
2021/06/07 14:50:47;;;;;;;;;2.67;2.67;;;;;;;;5079983;28;8788;-47
2021/06/07 14:53:12;;;;;;;;;3.67;3.67;;;;;;;;5083051;27;8868;-47
2021/06/07 14:55:37;;;;;;;;;3.00;2.67;;;;;;;;5090100;27;8820;-47
2021/06/07 14:58:03;;;;;;;;;3.33;3.33;;;;;;;;5097509;28;8840;-47
2021/06/07 15:00:28;;;;;;;;;4.67;4.67;;;;;;;;5086710;28;8951;-47
2021/06/07 15:02:55;;;;;;;;;4.33;3.67;;;;;;;;5081071;28;8785;-47
2021/06/07 15:05:20;;;;;;;;;4.75;3.75;;;;;;;;5084006;28;8800;-47